createdAt,value
2015-08-24T00:00:00.767Z,95.69
2015-08-24T00:00:13.126Z,95.41
2015-08-24T00:00:25.502Z,95.31
2015-08-24T00:00:37.877Z,95.31
2015-08-24T00:00:50.268Z,95.6
2015-08-24T00:01:02.643Z,95.98
2015-08-24T00:01:15.049Z,95.79
2015-08-24T00:01:27.474Z,95.98
2015-08-24T00:01:39.865Z,96.17
2015-08-24T00:01:52.271Z,95.88
2015-08-24T00:02:04.693Z,95.98
2015-08-24T00:02:17.099Z,95.98
2015-08-24T00:02:29.491Z,95.98
2015-08-24T00:02:41.866Z,95.88
2015-08-24T00:02:54.241Z,96.26
2015-08-24T00:03:06.616Z,96.26
2015-08-24T00:03:18.991Z,96.36
2015-08-24T00:03:31.353Z,96.08
2015-08-24T00:03:43.728Z,96.36
2015-08-24T00:03:56.103Z,96.26
2015-08-24T00:04:08.462Z,96.36
2015-08-24T00:04:20.837Z,96.45
2015-08-24T00:04:33.214Z,96.45
2015-08-24T00:04:45.574Z,96.45
2015-08-24T00:04:57.964Z,96.26
2015-08-24T00:05:10.339Z,95.98
2015-08-24T00:05:22.714Z,95.79
2015-08-24T00:05:35.091Z,95.79
2015-08-24T00:05:47.466Z,96.08
2015-08-24T00:05:59.841Z,96.08
2015-08-24T00:06:12.232Z,95.69
2015-08-24T00:06:24.607Z,95.79
2015-08-24T00:06:37.000Z,96.17
2015-08-24T00:06:49.390Z,95.69
2015-08-24T00:07:01.812Z,95.5
2015-08-24T00:07:14.218Z,95.12
2015-08-24T00:07:26.609Z,95.31
2015-08-24T00:07:39.016Z,95.5
2015-08-24T00:07:51.407Z,95.6
2015-08-24T00:08:03.813Z,95.6
2015-08-24T00:08:16.188Z,95.6
2015-08-24T00:08:28.547Z,95.6
2015-08-24T00:08:40.925Z,95.5
2015-08-24T00:08:53.300Z,95.41
2015-08-24T00:09:05.675Z,95.5
2015-08-24T00:09:18.050Z,95.31
2015-08-24T00:09:30.425Z,95.31
2015-08-24T00:09:42.787Z,95.31
2015-08-24T00:09:55.177Z,95.31
2015-08-24T00:10:07.552Z,95.12
2015-08-24T00:10:19.927Z,95.6
2015-08-24T00:10:32.302Z,95.69
2015-08-24T00:10:44.678Z,95.88
2015-08-24T00:10:57.053Z,95.69
2015-08-24T00:11:09.428Z,95.98
2015-08-24T00:11:21.788Z,96.08
2015-08-24T00:11:34.147Z,96.08
2015-08-24T00:11:46.541Z,96.08
2015-08-24T00:11:58.931Z,96.17
2015-08-24T00:12:11.306Z,96.17
2015-08-24T00:12:23.697Z,96.17
2015-08-24T00:12:36.135Z,95.98
2015-08-24T00:12:48.542Z,95.88
2015-08-24T00:13:00.917Z,96.26
2015-08-24T00:13:13.307Z,96.36
2015-08-24T00:13:25.698Z,96.26
2015-08-24T00:13:38.089Z,96.64
2015-08-24T00:13:50.482Z,96.26
2015-08-24T00:14:02.857Z,96.17
2015-08-24T00:14:15.232Z,96.36
2015-08-24T00:14:27.592Z,96.83
2015-08-24T00:14:39.967Z,97.12
2015-08-24T00:14:52.343Z,96.92
2015-08-24T00:15:04.718Z,97.02
2015-08-24T00:15:17.093Z,96.92
2015-08-24T00:15:29.311Z,96.92
2015-08-24T00:15:41.686Z,97.02
2015-08-24T00:15:54.049Z,96.92
2015-08-24T00:16:06.424Z,96.73
2015-08-24T00:16:18.799Z,97.02
2015-08-24T00:16:31.189Z,96.83
2015-08-24T00:16:43.549Z,96.92
2015-08-24T00:16:55.925Z,96.92
2015-08-24T00:17:08.284Z,96.83
2015-08-24T00:17:20.675Z,96.83
2015-08-24T00:17:33.050Z,96.92
2015-08-24T00:17:45.690Z,96.73
2015-08-24T00:17:58.083Z,97.12
2015-08-24T00:18:10.489Z,96.55
2015-08-24T00:18:22.880Z,96.36
2015-08-24T00:18:35.302Z,96.64
2015-08-24T00:18:47.692Z,96.36
2015-08-24T00:19:00.085Z,96.45
2015-08-24T00:19:12.491Z,96.45
2015-08-24T00:19:24.898Z,96.26
2015-08-24T00:19:37.273Z,96.73
2015-08-24T00:19:49.648Z,96.36
2015-08-24T00:20:02.026Z,96.83
2015-08-24T00:20:14.401Z,96.45
2015-08-24T00:20:26.776Z,96.55
2015-08-24T00:20:39.151Z,96.08
2015-08-24T00:20:51.526Z,96.36
2015-08-24T00:21:03.903Z,96.36
2015-08-24T00:21:16.278Z,96.36
2015-08-24T00:21:28.653Z,96.36
2015-08-24T00:21:41.028Z,96.17
2015-08-24T00:21:53.403Z,96.26
2015-08-24T00:22:05.794Z,96.36
2015-08-24T00:22:17.450Z,96.73
2015-08-24T00:22:29.825Z,96.64
2015-08-24T00:22:42.185Z,96.73
2015-08-24T00:22:54.575Z,96.45
2015-08-24T00:23:06.952Z,96.17
2015-08-24T00:23:19.327Z,96.26
2015-08-24T00:23:31.718Z,95.98
2015-08-24T00:23:44.124Z,96.08
2015-08-24T00:23:56.531Z,96.17
2015-08-24T00:24:08.939Z,96.08
2015-08-24T00:24:21.345Z,96.08
2015-08-24T00:24:33.767Z,96.08
2015-08-24T00:24:46.158Z,95.88
2015-08-24T00:24:58.564Z,96.08
2015-08-24T00:25:10.956Z,96.08
2015-08-24T00:25:23.331Z,96.08
2015-08-24T00:25:35.706Z,96.08
2015-08-24T00:25:48.081Z,96.08
2015-08-24T00:26:00.458Z,95.88
2015-08-24T00:26:12.833Z,96.26
2015-08-24T00:26:25.208Z,96.26
2015-08-24T00:26:37.568Z,95.88
2015-08-24T00:26:49.943Z,96.17
2015-08-24T00:27:02.320Z,95.98
2015-08-24T00:27:14.679Z,96.08
2015-08-24T00:27:27.070Z,96.17
2015-08-24T00:27:39.445Z,96.08
2015-08-24T00:27:51.835Z,95.79
2015-08-24T00:28:04.212Z,96.55
2015-08-24T00:28:16.572Z,96.73
2015-08-24T00:28:28.947Z,96.55
2015-08-24T00:28:41.337Z,96.73
2015-08-24T00:28:53.712Z,96.17
2015-08-24T00:29:06.105Z,96.45
2015-08-24T00:29:18.480Z,96.45
2015-08-24T00:29:30.902Z,97.12
2015-08-24T00:29:43.308Z,97.02
2015-08-24T00:29:55.714Z,97.02
2015-08-24T00:30:08.107Z,96.92
2015-08-24T00:30:19.826Z,96.92
2015-08-24T00:30:32.232Z,96.36
2015-08-24T00:30:44.638Z,96.45
2015-08-24T00:30:57.060Z,96.26
2015-08-24T00:31:09.437Z,96.26
2015-08-24T00:31:21.812Z,96.26
2015-08-24T00:31:34.187Z,96.45
2015-08-24T00:31:46.562Z,96.26
2015-08-24T00:31:58.937Z,96.45
2015-08-24T00:32:11.313Z,96.17
2015-08-24T00:32:23.688Z,96.08
2015-08-24T00:32:36.063Z,95.98
2015-08-24T00:32:48.423Z,96.08
2015-08-24T00:33:00.798Z,95.98
2015-08-24T00:33:13.176Z,96.26
2015-08-24T00:33:25.551Z,96.26
2015-08-24T00:33:37.941Z,96.45
2015-08-24T00:33:50.316Z,95.98
2015-08-24T00:34:02.691Z,95.98
2015-08-24T00:34:15.052Z,96.08
2015-08-24T00:34:27.442Z,96.45
2015-08-24T00:34:39.833Z,96.26
2015-08-24T00:34:52.223Z,96.26
2015-08-24T00:35:04.598Z,96.17
2015-08-24T00:35:16.992Z,96.08
2015-08-24T00:35:29.398Z,95.88
2015-08-24T00:35:41.789Z,96.08
2015-08-24T00:35:54.195Z,96.36
2015-08-24T00:36:06.664Z,96.26
2015-08-24T00:36:19.103Z,96.73
2015-08-24T00:36:31.494Z,96.64
2015-08-24T00:36:43.869Z,96.45
2015-08-24T00:36:56.244Z,96.55
2015-08-24T00:37:08.603Z,96.45
2015-08-24T00:37:20.980Z,96.64
2015-08-24T00:37:33.371Z,96.64
2015-08-24T00:37:45.746Z,96.45
2015-08-24T00:37:58.121Z,96.55
2015-08-24T00:38:10.496Z,96.55
2015-08-24T00:38:22.873Z,96.45
2015-08-24T00:38:35.248Z,96.73
2015-08-24T00:38:47.623Z,96.45
2015-08-24T00:38:59.982Z,96.73
2015-08-24T00:39:12.373Z,96.73
2015-08-24T00:39:24.750Z,96.45
2015-08-24T00:39:37.125Z,96.36
2015-08-24T00:39:49.500Z,96.73
2015-08-24T00:40:01.875Z,96.55
2015-08-24T00:40:14.250Z,96.55
2015-08-24T00:40:26.642Z,96.36
2015-08-24T00:40:39.017Z,96.45
2015-08-24T00:40:51.407Z,96.45
2015-08-24T00:41:03.814Z,96.36
2015-08-24T00:41:15.517Z,96.55
2015-08-24T00:41:27.910Z,96.17
2015-08-24T00:41:40.317Z,96.08
2015-08-24T00:41:52.707Z,96.08
2015-08-24T00:42:04.942Z,96.17
2015-08-24T00:42:17.379Z,96.26
2015-08-24T00:42:29.740Z,95.88
2015-08-24T00:42:42.115Z,96.17
2015-08-24T00:42:54.490Z,95.88
2015-08-24T00:43:06.865Z,95.98
2015-08-24T00:43:19.240Z,95.5
2015-08-24T00:43:30.899Z,95.12
2015-08-24T00:43:43.274Z,95.12
2015-08-24T00:43:55.649Z,95.31
2015-08-24T00:44:08.039Z,95.22
2015-08-24T00:44:20.414Z,95.79
2015-08-24T00:44:32.791Z,95.88
2015-08-24T00:44:45.166Z,95.98
2015-08-24T00:44:57.557Z,95.88
2015-08-24T00:45:09.932Z,95.12
2015-08-24T00:45:21.588Z,95.12
2015-08-24T00:45:33.965Z,95.31
2015-08-24T00:45:46.340Z,95.12
2015-08-24T00:45:58.715Z,95.41
2015-08-24T00:46:11.090Z,95.5
2015-08-24T00:46:23.465Z,95.31
2015-08-24T00:46:35.888Z,95.6
2015-08-24T00:46:48.279Z,95.6
2015-08-24T00:47:00.685Z,95.41
2015-08-24T00:47:13.091Z,95.22
2015-08-24T00:47:25.482Z,95.6
2015-08-24T00:47:37.906Z,95.6
2015-08-24T00:47:50.296Z,95.41
2015-08-24T00:48:02.703Z,95.41
2015-08-24T00:48:15.078Z,95.69
2015-08-24T00:48:27.468Z,95.31
2015-08-24T00:48:39.845Z,95.03
2015-08-24T00:48:52.205Z,95.31
2015-08-24T00:49:04.595Z,95.22
2015-08-24T00:49:16.955Z,95.12
2015-08-24T00:49:29.330Z,95.03
2015-08-24T00:49:41.692Z,95.03
2015-08-24T00:49:54.067Z,95.6
2015-08-24T00:50:06.442Z,95.6
2015-08-24T00:50:18.817Z,95.41
2015-08-24T00:50:31.192Z,95.31
2015-08-24T00:50:43.584Z,95.98
2015-08-24T00:50:55.959Z,95.88
2015-08-24T00:51:08.334Z,95.88
2015-08-24T00:51:20.709Z,95.79
2015-08-24T00:51:33.084Z,96.26
2015-08-24T00:51:45.462Z,96.08
2015-08-24T00:51:57.837Z,96.26
2015-08-24T00:52:10.196Z,96.08
2015-08-24T00:52:22.602Z,96.36
2015-08-24T00:52:34.993Z,96.08
2015-08-24T00:52:47.400Z,96.17
2015-08-24T00:52:59.791Z,96.26
2015-08-24T00:53:12.197Z,96.08
2015-08-24T00:53:24.603Z,96.26
2015-08-24T00:53:37.025Z,96.17
2015-08-24T00:53:49.387Z,96.08
2015-08-24T00:54:01.762Z,96.17
2015-08-24T00:54:14.153Z,96.08
2015-08-24T00:54:26.528Z,95.98
2015-08-24T00:54:38.903Z,96.17
2015-08-24T00:54:51.279Z,95.98
2015-08-24T00:55:03.638Z,95.88
2015-08-24T00:55:15.310Z,96.17
2015-08-24T00:55:27.701Z,95.88
2015-08-24T00:55:40.076Z,95.98
2015-08-24T00:55:52.453Z,96.08
2015-08-24T00:56:04.828Z,95.98
2015-08-24T00:56:17.203Z,96.08
2015-08-24T00:56:29.578Z,96.08
2015-08-24T00:56:41.953Z,96.08
2015-08-24T00:56:53.627Z,96.17
2015-08-24T00:57:06.002Z,96.08
2015-08-24T00:57:18.377Z,96.08
2015-08-24T00:57:30.752Z,95.88
2015-08-24T00:57:43.142Z,96.17
2015-08-24T00:57:55.535Z,96.26
2015-08-24T00:58:07.957Z,96.17
2015-08-24T00:58:20.363Z,96.08
2015-08-24T00:58:32.754Z,95.98
2015-08-24T00:58:45.162Z,95.69
2015-08-24T00:58:57.584Z,95.88
2015-08-24T00:59:09.834Z,95.98
2015-08-24T00:59:22.240Z,95.69
2015-08-24T00:59:34.615Z,95.98
2015-08-24T00:59:46.991Z,95.79
2015-08-24T00:59:59.366Z,95.69
2015-08-24T01:00:11.741Z,95.98
2015-08-24T01:00:24.116Z,95.88
2015-08-24T01:00:36.491Z,95.69
2015-08-24T01:00:48.854Z,95.88
2015-08-24T01:01:01.494Z,95.79
2015-08-24T01:01:13.869Z,95.88
2015-08-24T01:01:26.244Z,95.98
2015-08-24T01:01:38.604Z,95.6
2015-08-24T01:01:50.980Z,96.08
2015-08-24T01:02:03.355Z,95.88
2015-08-24T01:02:15.714Z,96.26
2015-08-24T01:02:28.089Z,96.36
2015-08-24T01:02:40.464Z,96.26
2015-08-24T01:02:52.842Z,96.26
2015-08-24T01:03:05.217Z,96.26
2015-08-24T01:03:17.592Z,95.98
2015-08-24T01:03:29.967Z,96.26
2015-08-24T01:03:42.373Z,95.98
2015-08-24T01:03:54.766Z,96.26
2015-08-24T01:04:07.172Z,96.55
2015-08-24T01:04:18.875Z,96.64
2015-08-24T01:04:31.266Z,96.36
2015-08-24T01:04:43.688Z,97.02
2015-08-24T01:04:55.377Z,97.12
2015-08-24T01:05:07.752Z,96.92
2015-08-24T01:05:20.127Z,96.92
2015-08-24T01:05:32.502Z,97.12
2015-08-24T01:05:44.877Z,97.21
2015-08-24T01:05:57.254Z,97.4
2015-08-24T01:06:09.629Z,97.31
2015-08-24T01:06:22.004Z,97.78
2015-08-24T01:06:34.379Z,97.59
2015-08-24T01:06:47.004Z,97.5
2015-08-24T01:06:59.381Z,97.69
2015-08-24T01:07:11.756Z,97.21
2015-08-24T01:07:24.131Z,97.21
2015-08-24T01:07:36.491Z,97.5
2015-08-24T01:07:48.866Z,97.59
2015-08-24T01:08:01.242Z,97.59
2015-08-24T01:08:13.617Z,97.4
2015-08-24T01:08:25.992Z,97.5
2015-08-24T01:08:38.367Z,97.78
2015-08-24T01:08:50.757Z,97.5
2015-08-24T01:09:03.134Z,97.69
2015-08-24T01:09:15.525Z,98.07
2015-08-24T01:09:27.947Z,98.07
2015-08-24T01:09:40.369Z,97.88
2015-08-24T01:09:52.775Z,98.35
2015-08-24T01:10:05.168Z,98.44
2015-08-24T01:10:17.575Z,98.44
2015-08-24T01:10:29.262Z,98.44
2015-08-24T01:10:41.637Z,98.35
2015-08-24T01:10:54.012Z,98.63
2015-08-24T01:11:05.670Z,98.25
2015-08-24T01:11:18.045Z,98.54
2015-08-24T01:11:30.405Z,98.25
2015-08-24T01:11:42.795Z,98.54
2015-08-24T01:11:55.155Z,98.54
2015-08-24T01:12:07.531Z,98.35
2015-08-24T01:12:19.921Z,98.25
2015-08-24T01:12:32.296Z,97.69
2015-08-24T01:12:44.671Z,97.88
2015-08-24T01:12:57.046Z,97.97
2015-08-24T01:13:09.409Z,97.78
2015-08-24T01:13:21.784Z,98.25
2015-08-24T01:13:34.143Z,98.16
2015-08-24T01:13:46.518Z,97.78
2015-08-24T01:13:58.893Z,97.97
2015-08-24T01:14:11.269Z,97.5
2015-08-24T01:14:23.660Z,97.69
2015-08-24T01:14:36.035Z,97.5
2015-08-24T01:14:48.425Z,97.5
2015-08-24T01:15:00.816Z,97.59
2015-08-24T01:15:12.506Z,97.59
2015-08-24T01:15:24.927Z,97.59
2015-08-24T01:15:37.318Z,97.5
2015-08-24T01:15:49.740Z,97.59
2015-08-24T01:16:02.131Z,97.4
2015-08-24T01:16:14.570Z,97.4
2015-08-24T01:16:26.945Z,97.59
2015-08-24T01:16:39.304Z,97.4
2015-08-24T01:16:51.679Z,97.69
2015-08-24T01:17:04.070Z,97.59
2015-08-24T01:17:16.447Z,97.69
2015-08-24T01:17:28.822Z,97.5
2015-08-24T01:17:41.181Z,97.4
2015-08-24T01:17:53.556Z,97.4
2015-08-24T01:18:05.931Z,97.5
2015-08-24T01:18:18.309Z,97.69
2015-08-24T01:18:30.684Z,97.59
2015-08-24T01:18:43.059Z,97.5
2015-08-24T01:18:55.434Z,97.4
2015-08-24T01:19:07.809Z,97.31
2015-08-24T01:19:20.185Z,97.21
2015-08-24T01:19:32.560Z,97.69
2015-08-24T01:19:44.935Z,97.12
2015-08-24T01:19:57.342Z,97.02
2015-08-24T01:20:09.732Z,96.92
2015-08-24T01:20:22.109Z,96.92
2015-08-24T01:20:34.500Z,96.92
2015-08-24T01:20:46.906Z,97.02
2015-08-24T01:20:59.297Z,96.73
2015-08-24T01:21:11.703Z,96.64
2015-08-24T01:21:24.096Z,96.45
2015-08-24T01:21:36.518Z,96.55
2015-08-24T01:21:48.924Z,96.17
2015-08-24T01:22:01.330Z,96.36
2015-08-24T01:22:13.721Z,96.45
2015-08-24T01:22:26.098Z,96.36
2015-08-24T01:22:38.473Z,96.36
2015-08-24T01:22:50.848Z,96.17
2015-08-24T01:23:03.223Z,95.98
2015-08-24T01:23:15.598Z,96.08
2015-08-24T01:23:27.975Z,96.08
2015-08-24T01:23:40.350Z,95.88
2015-08-24T01:23:52.037Z,96.45
2015-08-24T01:24:04.397Z,95.98
2015-08-24T01:24:16.772Z,95.98
2015-08-24T01:24:29.180Z,95.98
2015-08-24T01:24:41.555Z,95.69
2015-08-24T01:24:53.930Z,95.69
2015-08-24T01:25:06.305Z,95.5
2015-08-24T01:25:18.664Z,95.31
2015-08-24T01:25:31.041Z,95.6
2015-08-24T01:25:43.416Z,95.41
2015-08-24T01:25:55.791Z,95.31
2015-08-24T01:26:08.182Z,95.22
2015-08-24T01:26:20.572Z,95.31
2015-08-24T01:26:32.965Z,95.12
2015-08-24T01:26:45.371Z,95.69
2015-08-24T01:26:57.778Z,95.5
2015-08-24T01:27:10.168Z,95.5
2015-08-24T01:27:22.560Z,95.6
2015-08-24T01:27:34.966Z,95.5
2015-08-24T01:27:47.372Z,95.5
2015-08-24T01:27:59.747Z,95.12
2015-08-24T01:28:12.122Z,94.93
2015-08-24T01:28:24.500Z,94.93
2015-08-24T01:28:36.907Z,95.12
2015-08-24T01:28:49.282Z,95.41
2015-08-24T01:29:01.657Z,95.5
2015-08-24T01:29:14.032Z,95.6
2015-08-24T01:29:26.393Z,95.69
2015-08-24T01:29:38.768Z,95.6
2015-08-24T01:29:51.127Z,95.41
2015-08-24T01:30:03.502Z,95.41
2015-08-24T01:30:15.877Z,95.6
2015-08-24T01:30:28.239Z,94.74
2015-08-24T01:30:40.629Z,94.93
2015-08-24T01:30:52.989Z,94.56
2015-08-24T01:31:05.379Z,94.27
2015-08-24T01:31:17.770Z,94.46
2015-08-24T01:31:30.147Z,94.37
2015-08-24T01:31:42.506Z,93.89
2015-08-24T01:31:54.897Z,93.41
2015-08-24T01:32:07.288Z,93.23
2015-08-24T01:32:19.678Z,93.23
2015-08-24T01:32:32.071Z,92.85
2015-08-24T01:32:44.477Z,92.94
2015-08-24T01:32:56.899Z,93.04
2015-08-24T01:33:09.290Z,93.32
2015-08-24T01:33:21.665Z,93.13
2015-08-24T01:33:34.026Z,92.76
2015-08-24T01:33:46.870Z,93.04
2015-08-24T01:33:59.245Z,93.13
2015-08-24T01:34:11.620Z,93.23
2015-08-24T01:34:24.667Z,93.32
2015-08-24T01:34:37.043Z,93.04
2015-08-24T01:34:49.402Z,93.04
2015-08-24T01:35:01.777Z,92.85
2015-08-24T01:35:14.136Z,92.85
2015-08-24T01:35:26.511Z,92.76
2015-08-24T01:35:38.889Z,93.13
2015-08-24T01:35:51.264Z,93.13
2015-08-24T01:36:03.639Z,93.41
2015-08-24T01:36:16.014Z,93.23
2015-08-24T01:36:28.405Z,93.04
2015-08-24T01:36:40.782Z,93.32
2015-08-24T01:36:53.157Z,93.41
2015-08-24T01:37:05.532Z,93.7
2015-08-24T01:37:17.907Z,93.41
2015-08-24T01:37:30.329Z,93.8
2015-08-24T01:37:42.408Z,94.18
2015-08-24T01:37:54.111Z,94.18
2015-08-24T01:38:06.502Z,94.27
2015-08-24T01:38:18.908Z,94.08
2015-08-24T01:38:31.299Z,93.99
2015-08-24T01:38:43.707Z,94.18
2015-08-24T01:38:56.082Z,94.18
2015-08-24T01:39:08.457Z,94.18
2015-08-24T01:39:20.832Z,94.18
2015-08-24T01:39:33.207Z,94.27
2015-08-24T01:39:45.584Z,94.08
2015-08-24T01:39:57.959Z,94.18
2015-08-24T01:40:10.334Z,93.61
2015-08-24T01:40:22.693Z,93.23
2015-08-24T01:40:35.084Z,93.32
2015-08-24T01:40:47.462Z,93.32
2015-08-24T01:40:59.837Z,92.85
2015-08-24T01:41:12.212Z,92.66
2015-08-24T01:41:24.571Z,92.76
2015-08-24T01:41:36.946Z,92.18
2015-08-24T01:41:49.338Z,92.09
2015-08-24T01:42:01.697Z,91.99
2015-08-24T01:42:14.088Z,91.61
2015-08-24T01:42:26.478Z,91.66
2015-08-24T01:42:38.855Z,91.14
2015-08-24T01:42:51.230Z,90.9
2015-08-24T01:43:03.621Z,90.48
2015-08-24T01:43:16.027Z,90.81
2015-08-24T01:43:28.418Z,91
2015-08-24T01:43:40.826Z,90.62
2015-08-24T01:43:53.217Z,90.71
2015-08-24T01:44:05.639Z,90.43
2015-08-24T01:44:18.029Z,90.71
2015-08-24T01:44:30.436Z,90.05
2015-08-24T01:44:42.094Z,90.14
2015-08-24T01:44:54.453Z,90.05
2015-08-24T01:45:06.828Z,90.05
2015-08-24T01:45:19.203Z,90.05
2015-08-24T01:45:31.578Z,90.43
2015-08-24T01:45:43.940Z,90.33
2015-08-24T01:45:56.315Z,90.24
2015-08-24T01:46:08.690Z,91
2015-08-24T01:46:21.049Z,90.81
2015-08-24T01:46:33.424Z,90.62
2015-08-24T01:46:45.801Z,90.52
2015-08-24T01:46:58.176Z,90.81
2015-08-24T01:47:10.551Z,90.81
2015-08-24T01:47:22.926Z,90.62
2015-08-24T01:47:35.301Z,90.81
2015-08-24T01:47:46.959Z,90.62
2015-08-24T01:47:59.334Z,91.09
2015-08-24T01:48:11.725Z,91.28
2015-08-24T01:48:24.100Z,91.38
2015-08-24T01:48:36.490Z,91.28
2015-08-24T01:48:48.883Z,91.19
2015-08-24T01:49:01.289Z,91.09
2015-08-24T01:49:12.977Z,91.09
2015-08-24T01:49:25.242Z,90.43
2015-08-24T01:49:37.633Z,90.81
2015-08-24T01:49:50.041Z,90.81
2015-08-24T01:50:02.432Z,91
2015-08-24T01:50:14.823Z,90.62
2015-08-24T01:50:27.198Z,90.24
2015-08-24T01:50:39.573Z,90.71
2015-08-24T01:50:51.934Z,90.33
2015-08-24T01:51:04.309Z,89.76
2015-08-24T01:51:16.684Z,90.05
2015-08-24T01:51:29.059Z,90.14
2015-08-24T01:51:41.434Z,90.14
2015-08-24T01:51:53.811Z,89.48
2015-08-24T01:52:06.186Z,89.48
2015-08-24T01:52:18.561Z,89.58
2015-08-24T01:52:30.936Z,89.67
2015-08-24T01:52:43.311Z,89.76
2015-08-24T01:52:55.687Z,89.58
2015-08-24T01:53:08.046Z,89.58
2015-08-24T01:53:20.421Z,89.58
2015-08-24T01:53:32.796Z,90.43
2015-08-24T01:53:45.171Z,90.05
2015-08-24T01:53:57.549Z,90.43
2015-08-24T01:54:09.924Z,90.14
2015-08-24T01:54:22.299Z,90.81
2015-08-24T01:54:34.690Z,90.62
2015-08-24T01:54:47.096Z,90.81
2015-08-24T01:54:59.503Z,90.62
2015-08-24T01:55:11.894Z,90.9
2015-08-24T01:55:24.285Z,91.19
2015-08-24T01:55:36.707Z,91
2015-08-24T01:55:49.097Z,91.09
2015-08-24T01:56:01.365Z,91
2015-08-24T01:56:13.724Z,90.71
2015-08-24T01:56:26.099Z,91.09
2015-08-24T01:56:38.474Z,91.09
2015-08-24T01:56:50.849Z,90.9
2015-08-24T01:57:03.226Z,91.09
2015-08-24T01:57:15.586Z,90.43
2015-08-24T01:57:27.961Z,91
2015-08-24T01:57:40.336Z,90.33
2015-08-24T01:57:52.711Z,90.62
2015-08-24T01:58:05.088Z,90.71
2015-08-24T01:58:17.447Z,90.81
2015-08-24T01:58:29.822Z,90.62
2015-08-24T01:58:42.213Z,90.43
2015-08-24T01:58:54.575Z,90.33
2015-08-24T01:59:06.950Z,90.81
2015-08-24T01:59:19.325Z,90.62
2015-08-24T01:59:31.716Z,90.71
2015-08-24T01:59:44.091Z,90.71
2015-08-24T01:59:56.467Z,90.71
2015-08-24T02:00:08.873Z,90.52
2015-08-24T02:00:21.263Z,90.24
2015-08-24T02:00:33.685Z,90.62
2015-08-24T02:00:46.092Z,90.62
2015-08-24T02:00:58.484Z,90.43
2015-08-24T02:01:10.875Z,90.24
2015-08-24T02:01:23.281Z,90.81
2015-08-24T02:01:35.687Z,90.43
2015-08-24T02:01:48.062Z,90.43
2015-08-24T02:02:00.425Z,90.33
2015-08-24T02:02:12.800Z,90.24
2015-08-24T02:02:25.175Z,90.33
2015-08-24T02:02:37.550Z,90.52
2015-08-24T02:02:49.956Z,90.71
2015-08-24T02:03:02.333Z,90.62
2015-08-24T02:03:14.708Z,91
2015-08-24T02:03:27.145Z,90.81
2015-08-24T02:03:39.380Z,90.81
2015-08-24T02:03:51.755Z,90.52
2015-08-24T02:04:04.115Z,90.52
2015-08-24T02:04:16.490Z,90.52
2015-08-24T02:04:28.865Z,90.81
2015-08-24T02:04:41.240Z,90.71
2015-08-24T02:04:52.896Z,90.81
2015-08-24T02:05:05.274Z,90.81
2015-08-24T02:05:17.665Z,90.62
2015-08-24T02:05:30.040Z,90.33
2015-08-24T02:05:42.415Z,90.81
2015-08-24T02:05:54.806Z,91.09
2015-08-24T02:06:07.214Z,91.28
2015-08-24T02:06:19.620Z,91.47
2015-08-24T02:06:32.026Z,91.09
2015-08-24T02:06:44.417Z,90.81
2015-08-24T02:06:56.823Z,90.81
2015-08-24T02:07:09.231Z,91.09
2015-08-24T02:07:21.606Z,91.38
2015-08-24T02:07:33.981Z,91.75
2015-08-24T02:07:46.356Z,91.94
2015-08-24T02:07:58.731Z,91.47
2015-08-24T02:08:11.109Z,91.56
2015-08-24T02:08:23.484Z,91.47
2015-08-24T02:08:35.859Z,91.47
2015-08-24T02:08:48.234Z,91.56
2015-08-24T02:08:59.905Z,91.56
2015-08-24T02:09:12.281Z,91.28
2015-08-24T02:09:24.641Z,91.47
2015-08-24T02:09:37.016Z,91.56
2015-08-24T02:09:49.391Z,91.28
2015-08-24T02:10:01.766Z,91.66
2015-08-24T02:10:14.143Z,91.56
2015-08-24T02:10:26.502Z,91.66
2015-08-24T02:10:38.877Z,91.56
2015-08-24T02:10:51.112Z,91.66
2015-08-24T02:11:03.487Z,91.56
2015-08-24T02:11:15.879Z,91.56
2015-08-24T02:11:28.270Z,91.56
2015-08-24T02:11:40.676Z,91.75
2015-08-24T02:11:53.082Z,91.47
2015-08-24T02:12:04.067Z,91.56
2015-08-24T02:12:16.459Z,91.47
2015-08-24T02:12:28.866Z,91.52
2015-08-24T02:12:41.256Z,91.33
2015-08-24T02:12:53.662Z,91.28
2015-08-24T02:13:06.053Z,90.81
2015-08-24T02:13:18.430Z,91.47
2015-08-24T02:13:30.086Z,91.28
2015-08-24T02:13:42.461Z,90.71
2015-08-24T02:13:54.836Z,90.67
2015-08-24T02:14:07.211Z,90.9
2015-08-24T02:14:19.588Z,90.81
2015-08-24T02:14:31.963Z,90.9
2015-08-24T02:14:44.354Z,90.71
2015-08-24T02:14:56.713Z,90.81
2015-08-24T02:15:09.088Z,90.71
2015-08-24T02:15:21.731Z,91
2015-08-24T02:15:34.090Z,90.9
2015-08-24T02:15:46.465Z,90.71
2015-08-24T02:15:58.825Z,90.62
2015-08-24T02:16:11.200Z,91.24
2015-08-24T02:16:23.592Z,91.09
2015-08-24T02:16:35.967Z,91.19
2015-08-24T02:16:48.342Z,91
2015-08-24T02:17:00.717Z,91.28
2015-08-24T02:17:13.108Z,91.47
2015-08-24T02:17:24.813Z,91.66
2015-08-24T02:17:37.219Z,91.47
2015-08-24T02:17:49.626Z,91.42
2015-08-24T02:18:02.016Z,91.38
2015-08-24T02:18:14.438Z,91.28
2015-08-24T02:18:26.908Z,91.56
2015-08-24T02:18:39.283Z,91.56
2015-08-24T02:18:51.658Z,91.38
2015-08-24T02:19:04.033Z,91.38
2015-08-24T02:19:16.408Z,91.56
2015-08-24T02:19:28.785Z,91.33
2015-08-24T02:19:41.160Z,91.42
2015-08-24T02:19:53.519Z,91.66
2015-08-24T02:20:05.894Z,91.52
2015-08-24T02:20:18.269Z,91.52
2015-08-24T02:20:30.646Z,91.56
2015-08-24T02:20:43.021Z,91.38
2015-08-24T02:20:55.396Z,91.66
2015-08-24T02:21:07.756Z,91.56
2015-08-24T02:21:20.146Z,91.52
2015-08-24T02:21:32.524Z,91.66
2015-08-24T02:21:44.899Z,92.04
2015-08-24T02:21:57.259Z,92.04
2015-08-24T02:22:09.634Z,91.85
2015-08-24T02:22:22.024Z,91.94
2015-08-24T02:22:34.417Z,91.71
2015-08-24T02:22:46.792Z,92.33
2015-08-24T02:22:59.214Z,91.8
2015-08-24T02:23:11.604Z,92.09
2015-08-24T02:23:24.011Z,92.14
2015-08-24T02:23:36.403Z,91.9
2015-08-24T02:23:48.809Z,91.9
2015-08-24T02:24:01.075Z,91.9
2015-08-24T02:24:13.466Z,91.9
2015-08-24T02:24:25.841Z,92.38
2015-08-24T02:24:37.499Z,91.8
2015-08-24T02:24:49.874Z,91.8
2015-08-24T02:25:01.546Z,91.61
2015-08-24T02:25:13.202Z,91.9
2015-08-24T02:25:25.593Z,91.9
2015-08-24T02:25:37.251Z,91.9
2015-08-24T02:25:49.470Z,92.09
2015-08-24T02:26:01.845Z,91.9
2015-08-24T02:26:14.220Z,91.99
2015-08-24T02:26:26.595Z,91.99
2015-08-24T02:26:38.972Z,91.94
2015-08-24T02:26:51.362Z,92.18
2015-08-24T02:27:03.737Z,91.8
2015-08-24T02:27:15.394Z,91.8
2015-08-24T02:27:27.769Z,92.09
2015-08-24T02:27:40.129Z,92.09
2015-08-24T02:27:52.520Z,92.09
2015-08-24T02:28:04.895Z,92.66
2015-08-24T02:28:17.270Z,92.85
2015-08-24T02:28:29.504Z,92.57
2015-08-24T02:28:41.913Z,92.57
2015-08-24T02:28:54.319Z,93.23
2015-08-24T02:29:06.007Z,93.23
2015-08-24T02:29:18.413Z,93.13
2015-08-24T02:29:30.835Z,93.04
2015-08-24T02:29:43.258Z,93.04
2015-08-24T02:29:55.633Z,92.94
2015-08-24T02:30:08.008Z,93.32
2015-08-24T02:30:20.383Z,93.61
2015-08-24T02:30:32.758Z,93.32
2015-08-24T02:30:45.136Z,93.04
2015-08-24T02:30:57.511Z,93.61
2015-08-24T02:31:09.886Z,93.32
2015-08-24T02:31:22.511Z,92.94
2015-08-24T02:31:34.902Z,93.04
2015-08-24T02:31:47.262Z,93.04
2015-08-24T02:31:59.637Z,93.32
2015-08-24T02:32:12.012Z,93.32
2015-08-24T02:32:24.418Z,93.04
2015-08-24T02:32:36.793Z,93.32
2015-08-24T02:32:49.170Z,93.41
2015-08-24T02:33:01.545Z,92.94
2015-08-24T02:33:13.920Z,93.13
2015-08-24T02:33:26.311Z,93.32
2015-08-24T02:33:38.686Z,92.94
2015-08-24T02:33:51.078Z,92.94
2015-08-24T02:34:03.500Z,92.94
2015-08-24T02:34:15.907Z,93.23
2015-08-24T02:34:28.297Z,93.32
2015-08-24T02:34:40.706Z,93.41
2015-08-24T02:34:53.113Z,93.61
2015-08-24T02:35:05.519Z,93.32
2015-08-24T02:35:17.910Z,93.89
2015-08-24T02:35:30.316Z,93.8
2015-08-24T02:35:42.692Z,93.99
2015-08-24T02:35:55.067Z,94.27
2015-08-24T02:36:07.442Z,94.18
2015-08-24T02:36:19.817Z,94.18
2015-08-24T02:36:32.192Z,94.46
2015-08-24T02:36:44.569Z,94.08
2015-08-24T02:36:56.944Z,94.37
2015-08-24T02:37:09.319Z,93.99
2015-08-24T02:37:21.709Z,94.37
2015-08-24T02:37:34.084Z,94.27
2015-08-24T02:37:46.446Z,94.27
2015-08-24T02:37:58.836Z,94.08
2015-08-24T02:38:11.227Z,94.46
2015-08-24T02:38:23.602Z,94.46
2015-08-24T02:38:35.977Z,94.74
2015-08-24T02:38:48.354Z,94.65
2015-08-24T02:39:00.729Z,94.46
2015-08-24T02:39:13.104Z,94.27
2015-08-24T02:39:25.495Z,94.56
2015-08-24T02:39:37.870Z,94.37